Peotone Weather
Peotone-Weather Station Historical Data
 
Daily Summary for September 03, 2026 Units:  English    Metric   Both
Daily Weekly Monthly Yearly
  Current: High: Low: Average:
Temperature: 83.3 °F 91.7 °F 73.6 °F 82.8 °F
Dew Point: 77.2 °F 79.6 °F 69.9 °F 74.6 °F
Humidity: 82% 90% 62% 77%
Wind Speed: 4.8mph 12mph 0mph 4mph
Wind Gust: 7.8mph 19.5mph - -
WindSE - - South
Pressure: 29.89 in 29.95 in 29.88 in -
Precipitation: 0.00 in      
 
 
Tabular Data for September 03, 2026
Time Temperature Dew Point Pressure Wind Wind Speed Wind Gust Humidity Rainfall Rate (Hourly) solar
00:30 76.7 °F 73 °F 29.92 in South 2.4 mph 3.9 mph 88% 0.00 in 0 W/m2
01:00 76.5 °F 72.8 °F 29.92 in South 1.2 mph 5.2 mph 88% 0.00 in 0 W/m2
01:30 76.3 °F 72.6 °F 29.92 in SSW 3.6 mph 6.5 mph 88% 0.00 in 0 W/m2
02:00 77.1 °F 72.6 °F 29.92 in SSW 3.6 mph 9.1 mph 86% 0.00 in 0 W/m2
02:30 77.6 °F 72.4 °F 29.92 in SW 3.6 mph 6.5 mph 84% 0.00 in 0 W/m2
03:00 77.5 °F 71.9 °F 29.92 in SW 4.8 mph 10.4 mph 83% 0.00 in 0 W/m2
03:30 77.2 °F 71.2 °F 29.92 in SSW 3.6 mph 7.8 mph 82% 0.00 in 0 W/m2
04:00 76.7 °F 70.8 °F 29.92 in South 2.4 mph 7.8 mph 82% 0.00 in 0 W/m2
04:30 76.3 °F 70.8 °F 29.93 in SSW 3.6 mph 6.5 mph 83% 0.00 in 0 W/m2
05:00 75.8 °F 70.3 °F 29.93 in SSW 3.6 mph 6.5 mph 83% 0.00 in 0 W/m2
05:30 75.5 °F 70.3 °F 29.93 in South 2.4 mph 5.2 mph 84% 0.00 in 0 W/m2
06:00 74.8 °F 70 °F 29.94 in SW 2.4 mph 5.2 mph 85% 0.00 in 0 W/m2
06:30 74.1 °F 70 °F 29.94 in Calm   3.9 mph 87% 0.00 in 7 W/m2
07:00 73.9 °F 70.2 °F 29.95 in Calm   2.6 mph 88% 0.00 in 23 W/m2
07:30 73.6 °F 69.9 °F 29.94 in SSE 2.4 mph 6.5 mph 88% 0.00 in 32 W/m2
08:00 74.1 °F 71.1 °F 29.94 in SSE 7.2 mph 7.8 mph 90% 0.00 in 40 W/m2
08:30 75.5 °F 72.1 °F 29.94 in South 4.8 mph 9.1 mph 89% 0.00 in 46 W/m2
09:00 78.5 °F 72.8 °F 29.93 in South 7.2 mph 11.7 mph 83% 0.00 in 387 W/m2
09:30 83.4 °F 74 °F 29.93 in SW 12 mph 14.3 mph 73% 0.00 in 475 W/m2
10:00 85.3 °F 74.1 °F 29.94 in WSW 8.4 mph 14.3 mph 69% 0.00 in 550 W/m2
10:30 86.8 °F 75.1 °F 29.93 in SSW 3.6 mph 14.3 mph 68% 0.00 in 622 W/m2
11:00 88.1 °F 75.8 °F 29.93 in SW 4.8 mph 15.6 mph 67% 0.00 in 666 W/m2
11:30 89.5 °F 75.8 °F 29.93 in SW 3.6 mph 13 mph 64% 0.00 in 719 W/m2
12:00 90.4 °F 76.6 °F 29.93 in SSW 8.4 mph 11.7 mph 64% 0.00 in 780 W/m2
12:30 89.4 °F 77.1 °F 29.94 in SSW 2.4 mph 11.7 mph 67% 0.00 in 257 W/m2
13:00 91.7 °F 76.8 °F 29.94 in SW 3.6 mph 10.4 mph 62% 0.00 in 777 W/m2
13:30 90.4 °F 76.6 °F 29.93 in NW 3.6 mph 13 mph 64% 0.00 in 336 W/m2
14:00 91.6 °F 77.7 °F 29.92 in East 9.6 mph 10.4 mph 64% 0.00 in 759 W/m2
14:30 89.3 °F 77 °F 29.92 in ENE 8.4 mph 19.5 mph 67% 0.00 in 694 W/m2
15:00 90.1 °F 77.8 °F 29.90 in ESE 8.4 mph 11.7 mph 67% 0.00 in 649 W/m2
15:30 89.9 °F 78 °F 29.90 in Calm   11.7 mph 68% 0.00 in 592 W/m2
16:00 91.5 °F 79 °F 29.89 in ENE 2.4 mph 9.1 mph 67% 0.00 in 527 W/m2
16:30 90.3 °F 78.9 °F 29.89 in South 2.4 mph 9.1 mph 69% 0.00 in 445 W/m2
17:00 88.9 °F 78 °F 29.89 in ESE 3.6 mph 7.8 mph 70% 0.00 in 410 W/m2
17:30 88.8 °F 79.2 °F 29.89 in East 2.4 mph 6.5 mph 73% 0.00 in 151 W/m2
18:00 87.9 °F 79.2 °F 29.89 in SE 4.8 mph 6.5 mph 76% 0.00 in 84 W/m2
18:30 86.7 °F 79.3 °F 29.89 in ESE 1.2 mph 5.2 mph 79% 0.00 in 90 W/m2
19:00 85.8 °F 79.6 °F 29.88 in ESE 2.4 mph 6.5 mph 82% 0.00 in 16 W/m2
19:30 85.3 °F 78.3 °F 29.88 in Calm   9.1 mph 80% 0.00 in 0 W/m2
20:00 83.3 °F 77.2 °F 29.89 in SE 4.8 mph 7.8 mph 82% 0.00 in 0 W/m2
Peotone Weather
Compliments of Weather Underground - 2 mb